createdAt,value
2023-03-25T00:01:19.441Z,76.00
2023-03-25T00:03:53.828Z,76.00
2023-03-25T00:06:21.970Z,75.80
2023-03-25T00:08:50.684Z,76.00
2023-03-25T00:11:18.836Z,75.90
2023-03-25T00:13:48.582Z,76.00
2023-03-25T00:16:19.144Z,76.00
2023-03-25T00:18:50.422Z,76.10
2023-03-25T00:21:18.990Z,76.30
2023-03-25T00:23:47.796Z,76.50
2023-03-25T00:26:16.000Z,76.70
2023-03-25T00:28:45.198Z,76.70
2023-03-25T00:31:14.641Z,76.80
2023-03-25T00:33:43.228Z,76.90
2023-03-25T00:36:14.850Z,76.90
2023-03-25T00:38:44.004Z,77.10
2023-03-25T00:41:23.523Z,77.00
2023-03-25T00:43:53.737Z,77.10
2023-03-25T00:46:23.389Z,77.10
2023-03-25T00:48:53.089Z,77.00
2023-03-25T00:51:23.681Z,76.90
2023-03-25T00:53:53.793Z,77.00
2023-03-25T00:56:23.168Z,77.10
2023-03-25T00:58:51.757Z,77.20
2023-03-25T01:01:23.471Z,77.20
2023-03-25T01:03:58.194Z,77.20
2023-03-25T01:06:30.971Z,77.30
2023-03-25T01:09:00.541Z,77.40
2023-03-25T01:11:30.952Z,77.30
2023-03-25T01:14:01.146Z,78.20
2023-03-25T01:16:30.289Z,77.30
2023-03-25T01:18:58.312Z,77.30
2023-03-25T01:21:28.354Z,77.40
2023-03-25T01:23:56.832Z,77.50
2023-03-25T01:26:25.361Z,77.40
2023-03-25T01:28:54.009Z,77.20
2023-03-25T01:31:26.564Z,77.10
2023-03-25T01:33:55.041Z,77.30
2023-03-25T01:36:25.145Z,77.30
2023-03-25T01:38:55.052Z,77.30
2023-03-25T01:41:23.334Z,77.30
2023-03-25T01:44:08.561Z,77.40
2023-03-25T01:46:39.029Z,77.60
2023-03-25T01:49:11.457Z,77.50
2023-03-25T01:51:45.584Z,77.70
2023-03-25T01:54:18.424Z,77.60
2023-03-25T01:56:49.188Z,77.70
2023-03-25T01:59:20.664Z,77.60
2023-03-25T02:01:49.329Z,77.50
2023-03-25T02:04:27.701Z,77.60
2023-03-25T02:06:57.839Z,77.40
2023-03-25T02:09:28.943Z,77.30
2023-03-25T02:11:57.492Z,77.10
2023-03-25T02:14:29.741Z,77.10
2023-03-25T02:17:10.953Z,77.30
2023-03-25T02:20:27.219Z,77.10
2023-03-25T02:23:23.847Z,77.00
2023-03-25T02:26:30.256Z,76.90
2023-03-25T02:29:05.651Z,77.20
2023-03-25T02:31:57.042Z,77.00
2023-03-25T02:34:50.429Z,76.90
2023-03-25T02:37:54.434Z,77.00
2023-03-25T02:40:28.608Z,77.30
2023-03-25T02:43:03.220Z,76.90
2023-03-25T02:45:34.504Z,76.90
2023-03-25T02:48:06.482Z,77.00
2023-03-25T02:50:40.440Z,76.70
2023-03-25T02:53:14.327Z,76.90
2023-03-25T02:55:45.399Z,76.70
2023-03-25T02:58:16.830Z,76.60
2023-03-25T03:00:46.446Z,76.90
2023-03-25T03:03:14.544Z,76.90
2023-03-25T03:05:47.070Z,76.90
2023-03-25T03:08:29.599Z,77.00
2023-03-25T03:11:07.385Z,76.80
2023-03-25T03:13:56.100Z,76.80
2023-03-25T03:16:32.774Z,76.60
2023-03-25T03:19:09.224Z,76.80
2023-03-25T03:21:41.222Z,77.00
2023-03-25T03:24:17.004Z,76.90
2023-03-25T03:26:53.804Z,77.00
2023-03-25T03:29:29.946Z,76.90
2023-03-25T03:32:06.137Z,76.60
2023-03-25T03:34:44.727Z,76.60
2023-03-25T03:37:15.331Z,76.60
2023-03-25T03:39:44.871Z,76.60
2023-03-25T03:42:20.365Z,76.60
2023-03-25T03:44:52.987Z,76.60
2023-03-25T03:47:26.741Z,76.70
2023-03-25T03:50:00.700Z,76.80
2023-03-25T03:52:34.517Z,76.90
2023-03-25T03:55:07.198Z,76.80
2023-03-25T03:57:42.170Z,76.80
2023-03-25T04:00:16.964Z,76.80
2023-03-25T04:02:49.737Z,76.70
2023-03-25T04:05:21.415Z,76.80
2023-03-25T04:07:55.330Z,76.90
2023-03-25T04:10:29.818Z,77.10
2023-03-25T04:13:02.112Z,77.20
2023-03-25T04:15:30.151Z,77.20
2023-03-25T04:17:58.688Z,77.30
2023-03-25T04:20:29.943Z,77.50
2023-03-25T04:22:58.644Z,77.70
2023-03-25T04:25:26.998Z,77.70
2023-03-25T04:27:59.301Z,77.60
2023-03-25T04:30:29.915Z,77.60
2023-03-25T04:32:58.135Z,77.60
2023-03-25T04:35:27.359Z,77.50
2023-03-25T04:37:58.067Z,77.50
2023-03-25T04:40:26.937Z,77.30
2023-03-25T04:42:56.856Z,78.40
2023-03-25T04:45:26.016Z,77.50
2023-03-25T04:47:55.653Z,77.40
2023-03-25T04:50:27.701Z,77.40
2023-03-25T04:52:57.585Z,77.50
2023-03-25T04:55:26.411Z,77.40
2023-03-25T04:57:56.308Z,77.00
2023-03-25T05:00:26.475Z,77.70
2023-03-25T05:02:57.066Z,76.20
2023-03-25T05:05:27.142Z,75.90
2023-03-25T05:07:58.682Z,76.10
2023-03-25T05:10:29.572Z,76.10
2023-03-25T05:13:00.286Z,75.90
2023-03-25T05:15:30.272Z,75.80
2023-03-25T05:18:00.382Z,75.80
2023-03-25T05:20:28.508Z,75.90
2023-03-25T05:22:57.678Z,76.00
2023-03-25T05:25:26.233Z,75.80
2023-03-25T05:27:54.485Z,75.40
2023-03-25T05:30:23.053Z,75.30
2023-03-25T05:32:56.287Z,76.20
2023-03-25T05:35:26.772Z,75.30
2023-03-25T05:37:56.365Z,75.30
2023-03-25T05:40:25.418Z,75.30
2023-03-25T05:42:56.537Z,75.30
2023-03-25T05:45:25.016Z,75.30
2023-03-25T05:47:54.747Z,75.30
2023-03-25T05:50:23.091Z,75.20
2023-03-25T05:52:53.347Z,75.30
2023-03-25T05:55:24.005Z,75.20
2023-03-25T05:57:52.753Z,75.20
2023-03-25T06:00:23.506Z,75.60
2023-03-25T06:02:52.739Z,75.60
2023-03-25T06:05:23.812Z,75.50
2023-03-25T06:07:56.667Z,75.40
2023-03-25T06:10:25.504Z,75.40
2023-03-25T06:12:54.363Z,75.40
2023-03-25T06:15:29.624Z,75.30
2023-03-25T06:17:58.510Z,75.10
2023-03-25T06:20:27.247Z,75.10
2023-03-25T06:22:57.138Z,75.30
2023-03-25T06:25:27.159Z,75.30
2023-03-25T06:27:56.188Z,75.10
2023-03-25T06:30:24.931Z,74.80
2023-03-25T06:32:55.873Z,75.10
2023-03-25T06:35:24.184Z,75.10
2023-03-25T06:37:52.353Z,74.80
2023-03-25T06:40:22.507Z,74.60
2023-03-25T06:42:51.069Z,75.10
2023-03-25T06:45:19.329Z,74.80
2023-03-25T06:47:47.448Z,74.70
2023-03-25T06:50:15.961Z,74.70
2023-03-25T06:52:44.495Z,74.80
2023-03-25T06:55:12.597Z,74.60
2023-03-25T06:57:43.856Z,74.80
2023-03-25T07:00:13.255Z,74.30
2023-03-25T07:02:41.981Z,74.30
2023-03-25T07:05:10.683Z,73.80
2023-03-25T07:07:39.386Z,74.20
2023-03-25T07:10:08.300Z,73.50
2023-03-25T07:12:36.530Z,73.80
2023-03-25T07:15:07.413Z,73.80
2023-03-25T07:17:36.143Z,74.00
2023-03-25T07:20:05.436Z,74.00
2023-03-25T07:22:34.249Z,74.20
2023-03-25T07:25:02.807Z,74.40
2023-03-25T07:27:31.402Z,74.20
2023-03-25T07:29:59.525Z,74.40
2023-03-25T07:32:28.972Z,74.40
2023-03-25T07:34:57.148Z,74.30
2023-03-25T07:37:25.202Z,74.30
2023-03-25T07:39:53.738Z,73.80
2023-03-25T07:42:21.817Z,73.90
2023-03-25T07:44:50.339Z,73.60
2023-03-25T07:47:18.872Z,73.20
2023-03-25T07:49:50.124Z,73.50
2023-03-25T07:52:18.636Z,73.30
2023-03-25T07:54:47.150Z,73.80
2023-03-25T07:57:15.580Z,74.00
2023-03-25T07:59:43.628Z,74.00
2023-03-25T08:02:13.852Z,74.20
2023-03-25T08:04:42.097Z,74.10
2023-03-25T08:07:11.704Z,73.80
2023-03-25T08:09:40.245Z,73.80
2023-03-25T08:12:09.601Z,73.80
2023-03-25T08:14:37.628Z,73.80
2023-03-25T08:17:06.450Z,73.70
2023-03-25T08:19:34.885Z,73.60
2023-03-25T08:22:03.000Z,73.20
2023-03-25T08:24:32.676Z,73.00
2023-03-25T08:27:02.221Z,72.70
2023-03-25T08:29:44.265Z,72.70
2023-03-25T08:32:12.872Z,72.70
2023-03-25T08:34:40.949Z,72.70
2023-03-25T08:37:10.468Z,72.20
2023-03-25T08:39:42.121Z,72.50
2023-03-25T08:42:11.068Z,72.30
2023-03-25T08:44:39.317Z,72.40
2023-03-25T08:47:07.557Z,71.90
2023-03-25T08:49:35.907Z,71.70
2023-03-25T08:52:08.359Z,71.60
2023-03-25T08:54:36.447Z,71.90
2023-03-25T08:57:08.032Z,71.80
2023-03-25T08:59:36.543Z,70.80
2023-03-25T09:02:05.373Z,71.40
2023-03-25T09:04:33.449Z,71.00
2023-03-25T09:07:11.367Z,71.20
2023-03-25T09:09:41.225Z,71.00
2023-03-25T09:12:11.609Z,70.80
2023-03-25T09:14:39.808Z,69.70
2023-03-25T09:17:10.653Z,69.70
2023-03-25T09:19:38.886Z,69.80
2023-03-25T09:22:07.724Z,70.30
2023-03-25T09:24:35.982Z,69.70
2023-03-25T09:27:04.585Z,68.90
2023-03-25T09:29:34.591Z,69.30
2023-03-25T09:32:03.197Z,69.20
2023-03-25T09:34:32.835Z,69.40
2023-03-25T09:37:01.254Z,69.50
2023-03-25T09:39:29.923Z,68.80
2023-03-25T09:42:29.494Z,68.40
2023-03-25T09:45:11.991Z,66.90
2023-03-25T09:47:41.840Z,68.10
2023-03-25T09:50:15.614Z,66.80
2023-03-25T09:52:52.152Z,67.60
2023-03-25T09:55:28.103Z,67.70
2023-03-25T09:58:02.899Z,67.50
2023-03-25T10:00:33.641Z,67.40
2023-03-25T10:03:16.455Z,67.40
2023-03-25T10:06:01.385Z,66.90
2023-03-25T10:08:39.860Z,66.70
2023-03-25T10:11:11.856Z,67.40
2023-03-25T10:13:48.690Z,67.80
2023-03-25T10:16:28.281Z,66.90
2023-03-25T10:19:15.512Z,66.90
2023-03-25T10:21:49.803Z,65.90
2023-03-25T10:24:21.620Z,66.80
2023-03-25T10:26:55.316Z,67.00
2023-03-25T10:29:31.095Z,67.00
2023-03-25T10:32:04.337Z,66.70
2023-03-25T10:34:38.519Z,66.80
2023-03-25T10:37:12.997Z,66.50
2023-03-25T10:39:45.605Z,66.90
2023-03-25T10:42:22.303Z,67.30
2023-03-25T10:44:50.451Z,67.40
2023-03-25T10:47:24.305Z,67.80
2023-03-25T10:49:53.536Z,67.90
2023-03-25T10:52:22.066Z,68.00
2023-03-25T10:54:53.444Z,68.00
2023-03-25T10:57:24.891Z,68.00
2023-03-25T11:00:07.197Z,68.20
2023-03-25T11:02:36.694Z,68.20
2023-03-25T11:05:09.070Z,68.50
2023-03-25T11:07:38.704Z,68.80
2023-03-25T11:10:20.452Z,69.30
2023-03-25T11:12:51.705Z,69.70
2023-03-25T11:15:23.552Z,70.20
2023-03-25T11:18:02.295Z,70.80
2023-03-25T11:20:32.462Z,72.00
2023-03-25T11:23:07.980Z,72.40
2023-03-25T11:25:42.005Z,73.40
2023-03-25T11:28:19.139Z,74.30
2023-03-25T11:31:14.775Z,76.40
2023-03-25T11:33:46.755Z,76.30
2023-03-25T11:36:23.706Z,76.30
2023-03-25T11:39:00.364Z,77.10
2023-03-25T11:41:37.093Z,77.80
2023-03-25T11:44:07.703Z,77.30
2023-03-25T11:46:43.192Z,77.30
2023-03-25T11:49:18.473Z,76.90
2023-03-25T11:51:47.138Z,76.50
2023-03-25T11:54:17.927Z,75.50
2023-03-25T11:56:49.812Z,74.90
2023-03-25T11:59:24.925Z,73.90
2023-03-25T12:02:02.379Z,73.60
2023-03-25T12:04:32.505Z,73.90
2023-03-25T12:07:03.382Z,74.00
2023-03-25T12:09:33.402Z,74.10
2023-03-25T12:12:28.290Z,73.50
2023-03-25T12:15:07.386Z,73.10
2023-03-25T12:17:51.852Z,72.40
2023-03-25T12:20:30.575Z,71.10
2023-03-25T12:23:14.010Z,70.70
2023-03-25T12:25:55.081Z,69.90
2023-03-25T12:29:03.455Z,68.90
2023-03-25T12:31:43.339Z,68.90
2023-03-25T12:34:23.989Z,69.50
2023-03-25T12:37:06.324Z,69.10
2023-03-25T12:39:48.902Z,69.40
2023-03-25T12:42:35.512Z,68.10
2023-03-25T12:45:33.768Z,68.40
2023-03-25T12:48:10.601Z,66.70
2023-03-25T12:50:50.352Z,66.50
2023-03-25T12:53:42.737Z,65.30
2023-03-25T12:56:31.596Z,66.60
2023-03-25T12:59:16.950Z,64.60
2023-03-25T13:01:55.267Z,63.30
2023-03-25T13:04:39.660Z,65.10
2023-03-25T13:07:13.542Z,64.90
2023-03-25T13:09:53.926Z,65.40
2023-03-25T13:12:32.241Z,65.30
2023-03-25T13:15:07.839Z,65.10
2023-03-25T13:17:41.750Z,65.30
2023-03-25T13:20:12.639Z,64.90
2023-03-25T13:22:44.983Z,64.80
2023-03-25T13:25:23.745Z,64.80
2023-03-25T13:27:53.891Z,64.40
2023-03-25T13:30:34.085Z,64.80
2023-03-25T13:33:09.150Z,64.80
2023-03-25T13:35:41.645Z,65.40
2023-03-25T13:38:16.803Z,65.90
2023-03-25T13:40:53.128Z,66.90
2023-03-25T13:43:32.176Z,67.70
2023-03-25T13:46:07.162Z,68.50
2023-03-25T13:48:42.769Z,68.90
2023-03-25T13:51:11.503Z,68.40
2023-03-25T13:53:45.102Z,67.50
2023-03-25T13:56:33.886Z,66.10
2023-03-25T13:59:20.819Z,66.10
2023-03-25T14:02:08.702Z,64.40
2023-03-25T14:05:02.992Z,64.90
2023-03-25T14:07:51.317Z,65.10
2023-03-25T14:10:39.636Z,64.80
2023-03-25T14:13:14.122Z,65.40
2023-03-25T14:15:45.757Z,66.80
2023-03-25T14:18:19.227Z,68.10
2023-03-25T14:20:48.433Z,69.30
2023-03-25T14:23:21.160Z,69.40
2023-03-25T14:25:51.588Z,69.80
2023-03-25T14:28:33.373Z,69.60
2023-03-25T14:31:09.888Z,69.20
2023-03-25T14:34:24.596Z,68.90
2023-03-25T14:37:28.912Z,67.80
2023-03-25T14:40:00.499Z,66.90
2023-03-25T14:42:31.479Z,67.30
2023-03-25T14:45:48.782Z,66.00
2023-03-25T14:48:32.312Z,63.10
2023-03-25T14:51:16.777Z,63.70
2023-03-25T14:53:52.197Z,62.40
2023-03-25T14:56:24.976Z,61.30
2023-03-25T14:58:57.210Z,60.90
2023-03-25T15:01:32.938Z,59.90
2023-03-25T15:04:16.166Z,59.60
2023-03-25T15:06:44.679Z,59.80
2023-03-25T15:09:16.309Z,59.70
2023-03-25T15:11:52.101Z,59.90
2023-03-25T15:14:24.283Z,59.00
2023-03-25T15:17:05.575Z,59.20
2023-03-25T15:20:09.506Z,58.60
2023-03-25T15:22:39.543Z,58.90
2023-03-25T15:25:15.617Z,58.90
2023-03-25T15:28:05.112Z,59.00
2023-03-25T15:30:58.574Z,58.40
2023-03-25T15:33:42.537Z,58.40
2023-03-25T15:36:31.154Z,58.00
2023-03-25T15:39:25.006Z,57.20
2023-03-25T15:42:29.146Z,56.30
2023-03-25T15:45:22.567Z,56.90
2023-03-25T15:48:17.654Z,57.30
2023-03-25T15:51:03.608Z,57.30
2023-03-25T15:54:10.302Z,56.30
2023-03-25T15:56:43.773Z,55.90
2023-03-25T15:59:30.185Z,56.20
2023-03-25T16:02:01.468Z,55.50
2023-03-25T16:04:37.774Z,55.90
2023-03-25T16:07:09.091Z,54.70
2023-03-25T16:09:46.120Z,55.90
2023-03-25T16:12:22.251Z,55.80
2023-03-25T16:14:51.173Z,55.00
2023-03-25T16:17:21.816Z,55.50
2023-03-25T16:19:54.912Z,54.60
2023-03-25T16:22:27.888Z,54.20
2023-03-25T16:24:59.565Z,53.90
2023-03-25T16:27:31.559Z,53.10
2023-03-25T16:29:59.758Z,52.80
2023-03-25T16:32:34.105Z,54.30
2023-03-25T16:35:02.811Z,53.70
2023-03-25T16:37:33.376Z,54.00
2023-03-25T16:40:07.514Z,54.10
2023-03-25T16:42:37.202Z,53.60
2023-03-25T16:45:07.780Z,53.70
2023-03-25T16:47:37.455Z,53.40
2023-03-25T16:50:07.146Z,53.10
2023-03-25T16:52:36.638Z,53.20
2023-03-25T16:55:33.326Z,53.00
2023-03-25T16:58:04.231Z,52.90
2023-03-25T17:00:43.285Z,52.80
2023-03-25T17:03:18.136Z,52.70
2023-03-25T17:06:01.596Z,53.50
2023-03-25T17:08:31.215Z,53.40
2023-03-25T17:11:02.336Z,54.30
2023-03-25T17:13:35.668Z,54.20
2023-03-25T17:16:06.620Z,54.20
2023-03-25T17:18:37.390Z,54.60
2023-03-25T17:21:12.920Z,54.60
2023-03-25T17:23:46.384Z,54.80
2023-03-25T17:26:20.515Z,55.00
2023-03-25T17:29:00.038Z,54.90
2023-03-25T17:31:34.254Z,54.90
2023-03-25T17:34:06.518Z,55.20
2023-03-25T17:36:37.921Z,55.30
2023-03-25T17:39:14.314Z,55.50
2023-03-25T17:41:44.271Z,55.60
2023-03-25T17:44:17.138Z,55.50
2023-03-25T17:46:46.020Z,55.60
2023-03-25T17:49:18.121Z,55.80
2023-03-25T17:51:46.975Z,55.70
2023-03-25T17:54:15.598Z,55.90
2023-03-25T17:56:46.890Z,55.90
2023-03-25T17:59:17.897Z,55.80
2023-03-25T18:01:47.574Z,55.90
2023-03-25T18:04:15.832Z,56.20
2023-03-25T18:06:44.685Z,56.00
2023-03-25T18:09:17.577Z,56.20
2023-03-25T18:11:48.998Z,55.90
2023-03-25T18:14:17.167Z,56.20
2023-03-25T18:16:45.382Z,56.10
2023-03-25T18:19:16.861Z,56.40
2023-03-25T18:21:45.776Z,56.20
2023-03-25T18:24:14.516Z,56.80
2023-03-25T18:26:43.561Z,56.80
2023-03-25T18:29:19.678Z,56.70
2023-03-25T18:31:47.875Z,56.80
2023-03-25T18:34:16.843Z,57.00
2023-03-25T18:36:45.661Z,56.70
2023-03-25T18:39:17.162Z,57.00
2023-03-25T18:41:45.920Z,56.70
2023-03-25T18:44:16.121Z,56.80
2023-03-25T18:46:44.431Z,56.50
2023-03-25T18:49:17.113Z,56.30
2023-03-25T18:51:47.890Z,56.20
2023-03-25T18:54:17.079Z,55.90
2023-03-25T18:56:45.368Z,56.30
2023-03-25T18:59:19.394Z,56.60
2023-03-25T19:01:48.039Z,56.30
2023-03-25T19:04:16.457Z,56.50
2023-03-25T19:06:44.766Z,56.70
2023-03-25T19:09:18.670Z,56.70
2023-03-25T19:11:47.302Z,56.90
2023-03-25T19:14:15.476Z,57.00
2023-03-25T19:16:57.162Z,57.00
2023-03-25T19:19:29.846Z,57.20
2023-03-25T19:21:57.904Z,57.10
2023-03-25T19:24:26.102Z,56.90
2023-03-25T19:26:54.442Z,57.20
2023-03-25T19:29:23.133Z,57.30
2023-03-25T19:31:52.585Z,57.60
2023-03-25T19:34:22.588Z,57.90
2023-03-25T19:36:50.678Z,58.50
2023-03-25T19:39:22.847Z,57.90
2023-03-25T19:41:52.866Z,58.50
2023-03-25T19:44:21.638Z,58.00
2023-03-25T19:46:49.801Z,57.90
2023-03-25T19:49:29.186Z,58.30
2023-03-25T19:52:05.026Z,58.30
2023-03-25T19:54:33.600Z,58.20
2023-03-25T19:57:02.318Z,58.10
2023-03-25T19:59:30.517Z,58.20
2023-03-25T20:02:00.302Z,58.30
2023-03-25T20:04:29.868Z,58.40
2023-03-25T20:06:58.104Z,58.40
2023-03-25T20:09:26.283Z,58.50
2023-03-25T20:11:54.903Z,58.70
2023-03-25T20:14:23.261Z,59.00
2023-03-25T20:16:52.142Z,60.00
2023-03-25T20:19:20.706Z,59.40
2023-03-25T20:21:50.638Z,59.60
2023-03-25T20:24:19.206Z,59.80
2023-03-25T20:26:47.540Z,59.90
2023-03-25T20:29:18.310Z,59.90
2023-03-25T20:31:46.603Z,59.90
2023-03-25T20:34:14.731Z,59.90
2023-03-25T20:36:42.865Z,60.10
2023-03-25T20:39:12.844Z,60.30
2023-03-25T20:41:41.381Z,60.50
2023-03-25T20:44:09.420Z,60.80
2023-03-25T20:46:37.631Z,61.00
2023-03-25T20:49:09.002Z,61.30
2023-03-25T20:51:37.391Z,61.50
2023-03-25T20:54:05.758Z,61.60
2023-03-25T20:56:35.386Z,61.80
2023-03-25T20:59:04.647Z,62.20
2023-03-25T21:01:35.102Z,62.40
2023-03-25T21:04:04.567Z,62.60
2023-03-25T21:06:34.965Z,62.70
2023-03-25T21:09:07.375Z,63.00
2023-03-25T21:11:37.511Z,62.90
2023-03-25T21:14:06.337Z,63.20
2023-03-25T21:16:35.095Z,63.10
2023-03-25T21:19:03.195Z,63.20
2023-03-25T21:21:32.648Z,63.40
2023-03-25T21:24:01.105Z,63.40
2023-03-25T21:26:29.477Z,63.60
2023-03-25T21:28:59.843Z,63.90
2023-03-25T21:31:29.286Z,64.00
2023-03-25T21:33:58.356Z,64.30
2023-03-25T21:36:29.406Z,64.20
2023-03-25T21:38:58.429Z,64.30
2023-03-25T21:41:27.635Z,64.40
2023-03-25T21:43:55.688Z,64.50
2023-03-25T21:46:28.625Z,64.70
2023-03-25T21:48:58.651Z,64.90
2023-03-25T21:51:31.928Z,66.00
2023-03-25T21:54:01.051Z,65.20
2023-03-25T21:56:31.499Z,66.10
2023-03-25T21:59:01.831Z,65.50
2023-03-25T22:01:32.627Z,65.50
2023-03-25T22:04:02.575Z,65.70
2023-03-25T22:06:33.768Z,65.90
2023-03-25T22:09:05.930Z,66.00
2023-03-25T22:11:35.715Z,66.00
2023-03-25T22:14:05.373Z,66.10
2023-03-25T22:16:35.291Z,66.50
2023-03-25T22:19:03.925Z,66.40
2023-03-25T22:21:34.588Z,66.60
2023-03-25T22:24:04.584Z,66.60
2023-03-25T22:26:35.494Z,66.60
2023-03-25T22:29:06.123Z,65.70
2023-03-25T22:31:39.946Z,66.60
2023-03-25T22:34:11.870Z,66.80
2023-03-25T22:36:42.867Z,66.80
2023-03-25T22:39:12.943Z,66.80
2023-03-25T22:41:41.082Z,66.90
2023-03-25T22:44:09.461Z,66.80
2023-03-25T22:46:40.418Z,67.80
2023-03-25T22:49:09.063Z,67.00
2023-03-25T22:51:37.542Z,67.20
2023-03-25T22:54:06.821Z,67.30
2023-03-25T22:56:35.449Z,67.20
2023-03-25T22:59:04.981Z,67.10
2023-03-25T23:01:34.029Z,67.30
2023-03-25T23:04:03.866Z,67.20
2023-03-25T23:06:33.458Z,67.30
2023-03-25T23:09:01.606Z,67.20
2023-03-25T23:11:31.542Z,67.20
2023-03-25T23:14:01.947Z,67.20
2023-03-25T23:16:34.421Z,67.40
2023-03-25T23:19:06.221Z,67.50
2023-03-25T23:21:35.499Z,67.50
2023-03-25T23:24:04.969Z,67.50
2023-03-25T23:26:36.596Z,67.40
2023-03-25T23:29:09.127Z,67.50
2023-03-25T23:31:41.834Z,67.70
2023-03-25T23:34:13.234Z,67.70
2023-03-25T23:36:41.495Z,67.80
2023-03-25T23:39:17.094Z,67.60
2023-03-25T23:41:45.339Z,67.20
2023-03-25T23:44:13.989Z,67.70
2023-03-25T23:46:42.787Z,67.70
2023-03-25T23:49:12.393Z,67.80
2023-03-25T23:51:43.081Z,67.90
2023-03-25T23:54:13.750Z,68.00
2023-03-25T23:56:42.603Z,67.80
2023-03-25T23:59:12.188Z,67.80
